createdAt,value
2022-09-05T00:02:35.005Z,101646.94
2022-09-05T00:05:35.197Z,101652.69
2022-09-05T00:08:58.127Z,101652.81
2022-09-05T00:11:50.050Z,101654.69
2022-09-05T00:15:17.609Z,101650.00
2022-09-05T00:22:12.881Z,101661.31
2022-09-05T00:24:36.941Z,101651.97
2022-09-05T00:28:32.745Z,101651.97
2022-09-05T00:31:54.937Z,101640.19
2022-09-05T00:35:02.804Z,101653.69
2022-09-05T00:37:50.876Z,101640.69
2022-09-05T00:41:05.361Z,101634.34
2022-09-05T00:43:52.315Z,101638.00
2022-09-05T00:46:44.838Z,101644.63
2022-09-05T00:49:44.432Z,101644.00
2022-09-05T00:53:06.633Z,101640.19
2022-09-05T00:56:38.555Z,101640.66
2022-09-05T00:59:42.056Z,101639.53
2022-09-05T01:02:58.406Z,101634.97
2022-09-05T01:05:59.371Z,101635.84
2022-09-05T01:09:07.477Z,101639.63
2022-09-05T01:12:27.971Z,101631.88
2022-09-05T01:15:25.593Z,101639.84
2022-09-05T01:18:35.517Z,101644.16
2022-09-05T01:22:00.121Z,101637.13
2022-09-05T01:25:00.452Z,101641.47
2022-09-05T01:29:13.142Z,101648.16
2022-09-05T01:31:25.438Z,101633.16
2022-09-05T01:34:34.299Z,101647.47
2022-09-05T01:37:33.452Z,101643.03
2022-09-05T01:40:36.413Z,101628.94
2022-09-05T01:44:06.453Z,101643.28
2022-09-05T01:47:16.307Z,101647.81
2022-09-05T01:50:14.923Z,101649.16
2022-09-05T01:53:15.267Z,101646.75
2022-09-05T01:56:38.712Z,101643.28
2022-09-05T01:59:52.319Z,101645.47
2022-09-05T02:03:01.513Z,101647.09
2022-09-05T02:05:56.402Z,101646.22
2022-09-05T02:09:00.098Z,101640.97
2022-09-05T02:11:48.231Z,101640.53
2022-09-05T02:14:42.714Z,101637.34
2022-09-05T02:17:51.279Z,101642.59
2022-09-05T02:20:43.514Z,101650.59
2022-09-05T02:23:46.221Z,101649.56
2022-09-05T02:26:46.902Z,101631.75
2022-09-05T02:30:10.056Z,101651.72
2022-09-05T02:33:04.701Z,101639.69
2022-09-05T02:36:01.215Z,101645.13
2022-09-05T02:43:42.406Z,101642.28
2022-09-05T02:45:09.925Z,101646.28
2022-09-05T02:45:50.215Z,101652.00
2022-09-05T02:49:00.680Z,101648.72
2022-09-05T02:57:27.197Z,101637.47
2022-09-05T02:57:41.757Z,101632.84
2022-09-05T02:59:09.561Z,101640.44
2022-09-05T03:02:25.761Z,101647.63
2022-09-05T03:05:46.168Z,101638.91
2022-09-05T03:08:41.109Z,101650.16
2022-09-05T03:11:48.821Z,101647.94
2022-09-05T03:15:19.388Z,101642.91
2022-09-05T03:18:45.708Z,101655.25
2022-09-05T03:21:44.634Z,101644.72
2022-09-05T03:25:02.660Z,101645.38
2022-09-05T03:28:13.216Z,101653.69
2022-09-05T03:31:30.046Z,101651.69
2022-09-05T03:34:54.378Z,101658.91
2022-09-05T03:38:04.928Z,101672.19
2022-09-05T03:41:23.830Z,101660.91
2022-09-05T03:44:59.786Z,101662.50
2022-09-05T03:48:27.752Z,101670.50
2022-09-05T03:57:06.679Z,101664.03
2022-09-05T03:57:19.611Z,101664.91
2022-09-05T03:58:18.086Z,101657.63
2022-09-05T04:02:37.359Z,101665.69
2022-09-05T04:08:11.159Z,101662.34
2022-09-05T04:08:31.417Z,101664.28
2022-09-05T04:11:04.214Z,101660.31
2022-09-05T04:13:57.036Z,101665.78
2022-09-05T04:17:08.443Z,101669.16
2022-09-05T04:20:07.606Z,101663.22
2022-09-05T04:23:13.080Z,101653.75
2022-09-05T04:26:11.394Z,101672.69
2022-09-05T04:29:35.685Z,101672.69
2022-09-05T04:32:54.174Z,101666.97
2022-09-05T04:35:58.146Z,101670.97
2022-09-05T04:38:45.021Z,101669.03
2022-09-05T04:41:39.410Z,101665.59
2022-09-05T04:44:48.877Z,101687.19
2022-09-05T04:47:40.076Z,101682.81
2022-09-05T04:50:26.944Z,101696.22
2022-09-05T04:53:45.336Z,101705.59
2022-09-05T04:56:35.230Z,101706.13
2022-09-05T05:01:46.030Z,101706.56
2022-09-05T05:06:10.494Z,101715.69
2022-09-05T05:06:16.273Z,101711.84
2022-09-05T05:09:00.739Z,101709.47
2022-09-05T05:18:02.135Z,101724.63
2022-09-05T05:18:13.756Z,101718.47
2022-09-05T05:18:37.643Z,101716.97
2022-09-05T05:21:33.469Z,101717.13
2022-09-05T05:24:30.596Z,101730.41
2022-09-05T05:27:16.331Z,101722.31
2022-09-05T05:30:06.896Z,101726.38
2022-09-05T05:32:54.839Z,101722.25
2022-09-05T05:35:48.405Z,101723.00
2022-09-05T05:38:34.366Z,101723.63
2022-09-05T05:41:26.721Z,101728.78
2022-09-05T05:44:26.242Z,101726.63
2022-09-05T05:47:31.415Z,101725.00
2022-09-05T05:50:49.171Z,101731.75
2022-09-05T05:54:02.028Z,101733.88
2022-09-05T05:57:20.572Z,101736.69
2022-09-05T06:00:16.023Z,101743.13
2022-09-05T06:03:29.045Z,101746.47
2022-09-05T06:06:31.826Z,101739.41
2022-09-05T06:13:22.627Z,101727.63
2022-09-05T06:14:59.472Z,101741.81
2022-09-05T06:16:56.903Z,101740.03
2022-09-05T06:22:07.165Z,101735.47
2022-09-05T06:23:38.804Z,101757.94
2022-09-05T06:26:44.831Z,101756.38
2022-09-05T06:30:14.785Z,101752.22
2022-09-05T06:33:29.752Z,101767.44
2022-09-05T06:36:25.339Z,101763.78
2022-09-05T06:39:36.345Z,101765.75
2022-09-05T06:42:42.897Z,101767.13
2022-09-05T06:46:02.738Z,101761.72
2022-09-05T06:49:29.914Z,101767.44
2022-09-05T06:52:45.235Z,101772.06
2022-09-05T06:55:50.350Z,101775.66
2022-09-05T06:59:13.583Z,101774.66
2022-09-05T07:02:14.361Z,101770.56
2022-09-05T07:05:38.910Z,101787.81
2022-09-05T07:09:11.608Z,101784.09
2022-09-05T07:12:18.988Z,101791.84
2022-09-05T07:15:35.807Z,101783.25
2022-09-05T07:18:40.636Z,101789.88
2022-09-05T07:21:35.731Z,101784.97
2022-09-05T07:24:54.287Z,101780.03
2022-09-05T07:27:49.852Z,101792.56
2022-09-05T07:30:49.039Z,101794.72
2022-09-05T07:33:39.140Z,101796.25
2022-09-05T07:36:32.747Z,101792.47
2022-09-05T07:39:29.108Z,101795.31
2022-09-05T07:42:24.755Z,101804.81
2022-09-05T07:45:14.740Z,101801.81
2022-09-05T07:48:03.917Z,101808.00
2022-09-05T07:56:41.217Z,101804.03
2022-09-05T07:57:00.665Z,101809.44
2022-09-05T07:57:30.156Z,101813.28
2022-09-05T08:00:26.466Z,101816.25
2022-09-05T08:03:15.175Z,101819.41
2022-09-05T08:06:06.284Z,101808.91
2022-09-05T08:09:39.966Z,101815.13
2022-09-05T08:13:00.607Z,101806.22
2022-09-05T08:16:15.223Z,101810.16
2022-09-05T08:19:24.333Z,101810.09
2022-09-05T08:22:20.317Z,101807.81
2022-09-05T08:25:17.189Z,101795.59
2022-09-05T08:28:24.989Z,101793.63
2022-09-05T08:31:47.233Z,101804.19
2022-09-05T08:34:54.579Z,101805.47
2022-09-05T08:37:43.162Z,101802.19
2022-09-05T08:40:41.386Z,101805.69
2022-09-05T08:46:35.773Z,101804.59
2022-09-05T08:46:53.945Z,101812.22
2022-09-05T08:50:08.428Z,101808.16
2022-09-05T08:53:46.299Z,101801.91
2022-09-05T08:57:17.388Z,101811.31
2022-09-05T09:00:20.091Z,101806.28
2022-09-05T09:03:29.486Z,101794.03
2022-09-05T09:06:40.023Z,101800.56
2022-09-05T09:09:46.934Z,101802.06
2022-09-05T09:12:51.217Z,101802.09
2022-09-05T09:16:01.094Z,101804.06
2022-09-05T09:18:49.769Z,101800.94
2022-09-05T09:21:47.066Z,101798.56
2022-09-05T09:25:15.898Z,101807.88
2022-09-05T09:28:49.464Z,101801.88
2022-09-05T09:31:48.643Z,101790.31
2022-09-05T09:34:59.317Z,101797.81
2022-09-05T09:37:55.311Z,101795.78
2022-09-05T09:41:21.474Z,101785.06
2022-09-05T09:44:22.200Z,101799.75
2022-09-05T09:47:15.182Z,101792.03
2022-09-05T09:50:22.400Z,101795.88
2022-09-05T09:53:37.011Z,101795.66
2022-09-05T09:56:29.262Z,101800.47
2022-09-05T09:59:23.876Z,101795.13
2022-09-05T10:04:31.286Z,101800.13
2022-09-05T10:10:44.274Z,101788.06
2022-09-05T10:10:55.200Z,101797.81
2022-09-05T10:12:30.748Z,101792.25
2022-09-05T10:15:33.482Z,101795.44
2022-09-05T10:18:49.017Z,101792.59
2022-09-05T10:25:34.312Z,101783.19
2022-09-05T10:28:39.246Z,101775.41
2022-09-05T10:33:16.968Z,101778.97
2022-09-05T10:35:22.599Z,101773.84
2022-09-05T10:38:34.427Z,101770.50
2022-09-05T10:41:27.349Z,101763.19
2022-09-05T10:44:14.041Z,101765.00
2022-09-05T10:47:17.353Z,101765.38
2022-09-05T10:50:31.225Z,101758.53
2022-09-05T10:53:26.347Z,101759.72
2022-09-05T10:56:21.527Z,101768.03
2022-09-05T11:01:56.048Z,101769.56
2022-09-05T11:02:43.873Z,101769.06
2022-09-05T11:05:40.018Z,101761.22
2022-09-05T11:08:53.865Z,101780.00
2022-09-05T11:11:46.480Z,101771.56
2022-09-05T11:14:31.826Z,101764.00
2022-09-05T11:17:39.820Z,101772.44
2022-09-05T11:20:35.856Z,101761.09
2022-09-05T11:23:47.572Z,101756.78
2022-09-05T11:27:25.148Z,101765.94
2022-09-05T11:30:06.799Z,101767.31
2022-09-05T11:38:55.130Z,101760.44
2022-09-05T11:40:07.458Z,101748.13
2022-09-05T11:40:57.789Z,101767.41
2022-09-05T11:44:23.077Z,101760.66
2022-09-05T11:47:29.789Z,101752.56
2022-09-05T11:50:38.793Z,101737.44
2022-09-05T11:53:27.315Z,101739.75
2022-09-05T11:56:35.738Z,101738.53
2022-09-05T12:00:31.123Z,101736.47
2022-09-05T12:04:03.669Z,101743.94
2022-09-05T12:07:03.246Z,101736.00
2022-09-05T12:10:46.936Z,101743.81
2022-09-05T12:13:48.656Z,101738.50
2022-09-05T12:16:49.586Z,101739.22
2022-09-05T12:20:06.705Z,101737.03
2022-09-05T12:24:13.605Z,101732.78
2022-09-05T12:27:42.467Z,101721.09
2022-09-05T12:31:00.750Z,101721.84
2022-09-05T12:36:06.371Z,101732.41
2022-09-05T12:40:48.175Z,101718.53
2022-09-05T12:41:34.767Z,101720.56
2022-09-05T12:44:28.919Z,101715.69
2022-09-05T12:46:48.094Z,101726.41
2022-09-05T12:49:36.909Z,101714.13
2022-09-05T12:52:42.528Z,101711.69
2022-09-05T12:55:36.592Z,101705.22
2022-09-05T13:03:05.943Z,101715.41
2022-09-05T13:03:08.784Z,101707.56
2022-09-05T13:04:59.705Z,101704.97
2022-09-05T13:07:58.345Z,101694.03
2022-09-05T13:14:50.040Z,101707.72
2022-09-05T13:14:52.473Z,101695.16
2022-09-05T13:17:09.068Z,101694.84
2022-09-05T13:19:55.857Z,101690.88
2022-09-05T13:22:48.559Z,101698.28
2022-09-05T13:25:37.248Z,101702.00
2022-09-05T13:28:26.709Z,101704.84
2022-09-05T13:37:59.668Z,101713.53
2022-09-05T13:38:16.291Z,101706.00
2022-09-05T13:38:17.824Z,101707.00
2022-09-05T13:40:58.234Z,101694.88
2022-09-05T13:43:44.318Z,101709.28
2022-09-05T13:46:57.409Z,101709.38
2022-09-05T13:50:17.527Z,101708.72
2022-09-05T13:53:38.030Z,101701.06
2022-09-05T13:56:33.201Z,101703.91
2022-09-05T13:59:21.771Z,101697.28
2022-09-05T14:03:29.983Z,101707.94
2022-09-05T14:06:46.575Z,101700.22
2022-09-05T14:09:41.867Z,101689.94
2022-09-05T14:12:48.726Z,101695.34
2022-09-05T14:15:59.121Z,101694.94
2022-09-05T14:19:06.940Z,101687.34
2022-09-05T14:21:52.770Z,101683.50
2022-09-05T14:24:45.590Z,101685.81
2022-09-05T14:27:35.451Z,101682.03
2022-09-05T14:36:46.522Z,101688.13
2022-09-05T14:37:41.084Z,101686.81
2022-09-05T14:37:50.299Z,101674.56
2022-09-05T14:39:58.525Z,101686.78
2022-09-05T14:42:44.775Z,101673.59
2022-09-05T14:45:49.818Z,101676.16
2022-09-05T14:48:17.864Z,101671.44
2022-09-05T14:51:00.345Z,101678.56
2022-09-05T14:56:59.762Z,101671.59
2022-09-05T15:02:42.986Z,101668.91
2022-09-05T15:02:51.984Z,101661.91
2022-09-05T15:05:28.922Z,101664.59
2022-09-05T15:08:08.399Z,101660.34
2022-09-05T15:12:20.126Z,101653.22
2022-09-05T15:14:06.472Z,101652.09
2022-09-05T15:16:38.734Z,101640.78
2022-09-05T15:19:09.991Z,101644.38
2022-09-05T15:21:41.518Z,101647.94
2022-09-05T15:24:21.156Z,101643.38
2022-09-05T15:26:53.293Z,101637.19
2022-09-05T15:29:22.594Z,101639.88
2022-09-05T15:31:53.261Z,101641.03
2022-09-05T15:34:38.368Z,101643.78
2022-09-05T15:37:22.148Z,101641.38
2022-09-05T15:40:23.029Z,101642.47
2022-09-05T15:42:57.998Z,101637.38
2022-09-05T15:45:32.883Z,101629.81
2022-09-05T15:48:18.238Z,101632.38
2022-09-05T15:50:52.818Z,101623.53
2022-09-05T15:53:29.021Z,101623.97
2022-09-05T15:56:03.157Z,101627.38
2022-09-05T15:58:53.649Z,101632.81
2022-09-05T16:01:49.911Z,101626.66
2022-09-05T16:10:27.773Z,101640.34
2022-09-05T16:10:38.968Z,101624.91
2022-09-05T16:10:40.967Z,101624.91
2022-09-05T16:12:50.629Z,101622.91
2022-09-05T16:20:31.611Z,101619.44
2022-09-05T16:23:18.738Z,101627.66
2022-09-05T16:23:23.942Z,101628.81
2022-09-05T16:24:15.721Z,101619.72
2022-09-05T16:26:49.016Z,101617.28
2022-09-05T16:29:28.245Z,101604.44
2022-09-05T16:32:05.537Z,101609.72
2022-09-05T16:34:33.987Z,101614.56
2022-09-05T16:37:09.931Z,101604.84
2022-09-05T16:39:46.666Z,101605.75
2022-09-05T16:42:46.494Z,101609.53
2022-09-05T16:45:17.825Z,101614.78
2022-09-05T16:48:04.830Z,101606.03
2022-09-05T16:50:50.057Z,101612.50
2022-09-05T16:53:58.222Z,101611.56
2022-09-05T16:56:46.041Z,101600.16
2022-09-05T16:59:20.558Z,101604.41
2022-09-05T17:02:05.857Z,101597.59
2022-09-05T17:04:37.274Z,101594.44
2022-09-05T17:07:29.856Z,101604.31
2022-09-05T17:10:16.561Z,101593.19
2022-09-05T17:12:44.274Z,101600.97
2022-09-05T17:15:16.887Z,101602.88
2022-09-05T17:18:19.027Z,101595.13
2022-09-05T17:20:37.122Z,101598.50
2022-09-05T17:26:48.905Z,101602.22
2022-09-05T17:29:34.291Z,101596.47
2022-09-05T17:32:48.216Z,101594.88
2022-09-05T17:35:43.916Z,101601.66
2022-09-05T17:38:36.821Z,101587.41
2022-09-05T17:41:34.763Z,101596.59
2022-09-05T17:44:29.419Z,101599.56
2022-09-05T17:47:20.713Z,101603.78
2022-09-05T17:50:16.811Z,101602.28
2022-09-05T17:53:02.709Z,101608.28
2022-09-05T17:55:50.150Z,101602.50
2022-09-05T17:58:24.531Z,101608.16
2022-09-05T18:00:52.004Z,101615.41
2022-09-05T18:03:45.923Z,101605.69
2022-09-05T18:06:16.538Z,101610.34
2022-09-05T18:08:47.981Z,101596.63
2022-09-05T18:11:27.277Z,101603.28
2022-09-05T18:14:01.585Z,101601.91
2022-09-05T18:17:35.903Z,101605.50
2022-09-05T18:19:46.143Z,101605.88
2022-09-05T18:22:26.068Z,101611.56
2022-09-05T18:25:30.747Z,101621.56
2022-09-05T18:28:20.530Z,101619.66
2022-09-05T18:30:50.034Z,101619.78
2022-09-05T18:33:56.284Z,101630.28
2022-09-05T18:36:25.863Z,101619.16
2022-09-05T18:39:24.258Z,101617.69
2022-09-05T18:42:14.780Z,101624.28
2022-09-05T18:44:59.653Z,101619.00
2022-09-05T18:47:51.316Z,101613.25
2022-09-05T18:50:32.285Z,101612.28
2022-09-05T18:53:08.961Z,101608.69
2022-09-05T18:56:20.336Z,101599.88
2022-09-05T18:58:58.307Z,101611.56
2022-09-05T19:01:42.015Z,101615.28
2022-09-05T19:04:34.511Z,101598.38
2022-09-05T19:07:22.289Z,101613.34
2022-09-05T19:10:36.254Z,101601.06
2022-09-05T19:13:16.069Z,101601.34
2022-09-05T19:16:43.077Z,101591.41
2022-09-05T19:19:10.606Z,101605.03
2022-09-05T19:22:05.529Z,101591.28
2022-09-05T19:24:45.550Z,101593.75
2022-09-05T19:29:19.080Z,101583.97
2022-09-05T19:36:56.935Z,101591.44
2022-09-05T19:37:05.766Z,101588.59
2022-09-05T19:37:07.380Z,101586.19
2022-09-05T19:39:40.562Z,101589.25
2022-09-05T19:47:35.281Z,101584.56
2022-09-05T19:47:39.121Z,101588.91
2022-09-05T19:47:55.869Z,101580.81
2022-09-05T19:50:12.875Z,101583.16
2022-09-05T19:52:40.919Z,101575.59
2022-09-05T19:55:22.451Z,101585.09
2022-09-05T19:58:18.482Z,101575.50
2022-09-05T20:01:00.856Z,101585.47
2022-09-05T20:03:42.272Z,101581.66
2022-09-05T20:06:29.592Z,101587.47
2022-09-05T20:09:16.211Z,101587.72
2022-09-05T20:11:56.158Z,101581.25
2022-09-05T20:14:33.505Z,101574.22
2022-09-05T20:17:22.465Z,101576.16
2022-09-05T20:20:09.061Z,101578.69
2022-09-05T20:22:48.746Z,101574.50
2022-09-05T20:25:36.079Z,101577.66
2022-09-05T20:28:10.776Z,101586.34
2022-09-05T20:31:00.274Z,101580.66
2022-09-05T20:33:34.593Z,101582.75
2022-09-05T20:39:26.539Z,101568.47
2022-09-05T20:43:16.383Z,101569.16
2022-09-05T20:43:18.013Z,101566.72
2022-09-05T20:44:38.001Z,101569.41
2022-09-05T20:54:00.950Z,101571.34
2022-09-05T20:54:25.178Z,101561.66
2022-09-05T20:54:26.768Z,101561.34
2022-09-05T20:56:22.716Z,101553.88
2022-09-05T20:58:51.737Z,101552.06
2022-09-05T21:01:23.282Z,101550.81
2022-09-05T21:04:02.363Z,101558.91
2022-09-05T21:06:37.691Z,101556.31
2022-09-05T21:09:25.143Z,101559.00
2022-09-05T21:11:59.932Z,101558.13
2022-09-05T21:14:29.036Z,101556.03
2022-09-05T21:17:00.875Z,101550.47
2022-09-05T21:19:36.418Z,101557.16
2022-09-05T21:22:05.412Z,101547.53
2022-09-05T21:24:32.747Z,101551.84
2022-09-05T21:27:22.004Z,101552.41
2022-09-05T21:29:58.538Z,101534.91
2022-09-05T21:32:31.871Z,101543.69
2022-09-05T21:35:33.582Z,101542.13
2022-09-05T21:37:54.405Z,101539.38
2022-09-05T21:40:22.477Z,101534.34
2022-09-05T21:46:53.502Z,101538.34
2022-09-05T21:47:39.161Z,101540.91
2022-09-05T21:48:24.616Z,101537.34
2022-09-05T21:50:58.388Z,101529.22
2022-09-05T21:59:14.386Z,101529.22
2022-09-05T21:59:33.301Z,101533.09
2022-09-05T21:59:36.844Z,101530.72
2022-09-05T22:02:08.506Z,101533.09
2022-09-05T22:04:40.926Z,101532.22
2022-09-05T22:07:25.016Z,101530.50
2022-09-05T22:10:05.746Z,101524.38
2022-09-05T22:12:38.665Z,101529.63
2022-09-05T22:15:27.881Z,101529.00
2022-09-05T22:18:16.780Z,101522.34
2022-09-05T22:21:01.369Z,101530.84
2022-09-05T22:23:37.136Z,101529.88
2022-09-05T22:26:08.017Z,101513.34
2022-09-05T22:28:38.754Z,101526.44
2022-09-05T22:31:07.551Z,101526.34
2022-09-05T22:33:36.218Z,101528.16
2022-09-05T22:36:04.578Z,101519.97
2022-09-05T22:38:32.645Z,101527.72
2022-09-05T22:41:00.136Z,101519.75
2022-09-05T22:43:27.430Z,101524.28
2022-09-05T22:45:56.490Z,101518.25
2022-09-05T22:48:24.312Z,101509.59
2022-09-05T22:50:52.321Z,101513.63
2022-09-05T22:53:19.792Z,101513.28
2022-09-05T22:55:47.058Z,101512.22
2022-09-05T22:58:15.905Z,101513.22
2022-09-05T23:00:44.837Z,101504.50
2022-09-05T23:03:12.284Z,101512.31
2022-09-05T23:05:39.463Z,101507.59
2022-09-05T23:08:07.273Z,101504.78
2022-09-05T23:10:36.087Z,101509.16
2022-09-05T23:13:08.144Z,101505.28
2022-09-05T23:15:36.705Z,101514.72
2022-09-05T23:18:04.275Z,101504.81
2022-09-05T23:20:32.717Z,101507.81
2022-09-05T23:23:04.292Z,101510.03
2022-09-05T23:25:32.113Z,101512.94
2022-09-05T23:27:59.388Z,101513.81
2022-09-05T23:30:26.856Z,101519.56
2022-09-05T23:32:54.115Z,101512.22
2022-09-05T23:35:21.439Z,101516.00
2022-09-05T23:37:49.124Z,101502.91
2022-09-05T23:40:20.130Z,101518.94
2022-09-05T23:42:55.765Z,101523.94
2022-09-05T23:45:24.357Z,101509.00
2022-09-05T23:47:52.055Z,101514.63
2022-09-05T23:50:20.456Z,101499.69
2022-09-05T23:52:49.166Z,101505.91
2022-09-05T23:55:19.827Z,101493.00
2022-09-05T23:57:47.243Z,101504.59
